createdAt,value
2023-03-02T00:01:38.837Z,4.70
2023-03-02T00:05:49.100Z,4.65
2023-03-02T00:09:53.631Z,4.69
2023-03-02T00:13:57.133Z,4.69
2023-03-02T00:18:00.130Z,4.64
2023-03-02T00:22:11.156Z,4.67
2023-03-02T00:26:13.498Z,4.73
2023-03-02T00:30:17.517Z,4.60
2023-03-02T00:34:20.104Z,4.59
2023-03-02T00:38:20.544Z,4.63
2023-03-02T00:42:21.696Z,4.73
2023-03-02T00:46:29.374Z,4.76
2023-03-02T00:50:29.528Z,4.74
2023-03-02T00:54:44.821Z,4.64
2023-03-02T00:58:45.873Z,4.65
2023-03-02T01:02:55.398Z,4.61
2023-03-02T01:06:56.469Z,4.62
2023-03-02T01:11:07.349Z,4.52
2023-03-02T01:15:13.961Z,4.57
2023-03-02T01:19:16.648Z,4.58
2023-03-02T01:23:17.800Z,4.54
2023-03-02T01:27:19.035Z,4.48
2023-03-02T01:31:21.832Z,4.40
2023-03-02T01:35:26.859Z,4.50
2023-03-02T01:39:27.927Z,4.36
2023-03-02T01:43:29.550Z,4.31
2023-03-02T01:47:34.633Z,4.34
2023-03-02T01:51:42.129Z,4.19
2023-03-02T01:55:53.544Z,4.12
2023-03-02T01:59:57.049Z,4.14
2023-03-02T02:03:57.829Z,4.26
2023-03-02T02:08:03.440Z,4.17
2023-03-02T02:12:06.575Z,4.08
2023-03-02T02:16:08.031Z,4.03
2023-03-02T02:20:16.443Z,4.09
2023-03-02T02:24:26.797Z,4.05
2023-03-02T02:28:34.331Z,3.87
2023-03-02T02:32:36.531Z,3.90
2023-03-02T02:36:41.111Z,3.83
2023-03-02T02:40:54.880Z,3.75
2023-03-02T02:45:00.014Z,3.64
2023-03-02T02:49:00.546Z,3.62
2023-03-02T02:53:03.646Z,3.52
2023-03-02T02:57:05.353Z,3.50
2023-03-02T03:01:10.516Z,3.32
2023-03-02T03:05:16.114Z,3.33
2023-03-02T03:09:16.768Z,3.37
2023-03-02T03:13:18.324Z,3.35
2023-03-02T03:17:21.320Z,3.31
2023-03-02T03:21:22.370Z,3.24
2023-03-02T03:25:23.828Z,3.28
2023-03-02T03:29:25.496Z,3.17
2023-03-02T03:33:29.523Z,3.06
2023-03-02T03:41:49.843Z,3.04
2023-03-02T03:45:51.231Z,2.98
2023-03-02T03:49:55.112Z,3.00
2023-03-02T03:54:02.625Z,2.89
2023-03-02T03:58:03.974Z,2.95
2023-03-02T04:02:07.073Z,2.85
2023-03-02T04:06:19.783Z,2.67
2023-03-02T04:10:21.366Z,2.73
2023-03-02T04:14:22.120Z,2.76
2023-03-02T04:18:24.122Z,2.77
2023-03-02T04:22:27.071Z,2.74
2023-03-02T04:26:28.844Z,2.80
2023-03-02T04:30:30.408Z,2.66
2023-03-02T04:34:32.591Z,2.67
2023-03-02T04:38:57.913Z,2.69
2023-03-02T04:43:04.805Z,2.58
2023-03-02T04:47:11.906Z,2.70
2023-03-02T04:51:24.260Z,2.54
2023-03-02T04:55:35.814Z,2.50
2023-03-02T04:59:42.608Z,2.43
2023-03-02T05:03:53.173Z,2.61
2023-03-02T05:07:58.837Z,2.48
2023-03-02T05:12:04.598Z,2.44
2023-03-02T05:16:11.753Z,2.40
2023-03-02T05:20:15.898Z,2.44
2023-03-02T05:24:21.060Z,2.39
2023-03-02T05:28:23.649Z,2.39
2023-03-02T05:32:28.366Z,2.39
2023-03-02T05:36:47.048Z,2.42
2023-03-02T05:41:00.289Z,2.40
2023-03-02T05:45:10.962Z,2.22
2023-03-02T05:49:14.981Z,2.13
2023-03-02T05:53:25.446Z,2.27
2023-03-02T05:57:32.644Z,2.27
2023-03-02T06:01:40.285Z,2.37
2023-03-02T06:05:50.635Z,2.24
2023-03-02T06:09:56.357Z,2.35
2023-03-02T06:14:03.871Z,2.33
2023-03-02T06:22:25.342Z,2.34
2023-03-02T06:26:29.332Z,2.52
2023-03-02T06:30:35.430Z,2.40
2023-03-02T06:34:39.979Z,2.52
2023-03-02T06:38:44.617Z,2.45
2023-03-02T06:42:48.333Z,2.49
2023-03-02T06:46:50.464Z,2.58
2023-03-02T06:50:54.222Z,2.56
2023-03-02T06:55:01.798Z,2.56
2023-03-02T06:59:04.915Z,2.61
2023-03-02T07:03:12.924Z,2.61
2023-03-02T07:07:23.443Z,2.67
2023-03-02T07:11:35.008Z,2.68
2023-03-02T07:15:37.047Z,2.65
2023-03-02T07:19:40.832Z,2.53
2023-03-02T07:23:41.726Z,2.53
2023-03-02T07:27:45.092Z,2.53
2023-03-02T07:31:45.895Z,2.55
2023-03-02T07:35:49.310Z,2.54
2023-03-02T07:39:50.549Z,2.56
2023-03-02T07:43:54.261Z,2.53
2023-03-02T07:47:57.146Z,2.45
2023-03-02T07:51:58.409Z,2.35
2023-03-02T07:56:04.764Z,2.41
2023-03-02T08:00:09.018Z,2.37
2023-03-02T08:04:15.285Z,2.43
2023-03-02T08:08:25.494Z,2.41
2023-03-02T08:12:43.316Z,2.48
2023-03-02T08:16:54.585Z,2.39
2023-03-02T08:20:55.921Z,2.54
2023-03-02T08:25:00.495Z,2.43
2023-03-02T08:29:01.541Z,2.46
2023-03-02T08:33:12.107Z,2.38
2023-03-02T08:37:27.981Z,2.35
2023-03-02T08:41:50.966Z,2.33
2023-03-02T08:46:15.531Z,2.32
2023-03-02T08:50:22.251Z,2.29
2023-03-02T08:54:23.311Z,2.30
2023-03-02T08:58:24.909Z,2.13
2023-03-02T09:02:35.089Z,2.12
2023-03-02T09:06:43.165Z,2.21
2023-03-02T09:10:47.061Z,2.18
2023-03-02T09:14:53.856Z,2.20
2023-03-02T09:18:54.492Z,2.32
2023-03-02T09:22:58.316Z,2.25
2023-03-02T09:27:00.109Z,2.37
2023-03-02T09:31:03.893Z,2.43
2023-03-02T09:35:07.279Z,2.47
2023-03-02T09:39:15.523Z,2.43
2023-03-02T09:43:24.251Z,2.48
2023-03-02T09:47:35.757Z,2.66
2023-03-02T09:51:44.071Z,2.62
2023-03-02T09:55:48.943Z,2.76
2023-03-02T09:59:53.346Z,2.84
2023-03-02T10:03:58.425Z,2.86
2023-03-02T10:08:02.618Z,3.02
2023-03-02T10:12:27.829Z,3.14
2023-03-02T10:16:38.516Z,3.15
2023-03-02T10:20:50.908Z,3.27
2023-03-02T10:24:54.434Z,3.49
2023-03-02T10:29:34.203Z,3.43
2023-03-02T10:33:49.437Z,3.52
2023-03-02T10:37:56.363Z,3.51
2023-03-02T10:42:04.277Z,3.53
2023-03-02T10:46:22.529Z,3.62
2023-03-02T10:50:32.901Z,3.69
2023-03-02T11:05:17.795Z,4.06
2023-03-02T11:10:16.523Z,4.16
2023-03-02T11:15:11.870Z,4.20
2023-03-02T11:19:19.782Z,4.37
2023-03-02T11:23:26.880Z,4.43
2023-03-02T11:27:33.967Z,4.46
2023-03-02T11:31:49.046Z,4.69
2023-03-02T11:36:10.070Z,4.84
2023-03-02T11:40:24.330Z,5.02
2023-03-02T11:44:35.520Z,5.12
2023-03-02T11:53:06.133Z,5.29
2023-03-02T11:57:07.028Z,5.35
2023-03-02T12:01:07.681Z,5.45
2023-03-02T12:05:31.819Z,5.41
2023-03-02T12:09:42.962Z,5.35
2023-03-02T12:13:49.058Z,5.69
2023-03-02T12:17:52.445Z,5.75
2023-03-02T12:22:12.122Z,5.83
2023-03-02T12:26:31.783Z,5.92
2023-03-02T12:30:47.102Z,5.85
2023-03-02T12:35:03.410Z,5.97
2023-03-02T12:39:22.081Z,5.97
2023-03-02T12:43:30.598Z,6.06
2023-03-02T12:47:38.403Z,6.10
2023-03-02T12:51:55.420Z,6.14
2023-03-02T12:56:01.665Z,6.27
2023-03-02T13:00:18.442Z,6.33
2023-03-02T13:04:28.618Z,6.39
2023-03-02T13:08:38.841Z,6.50
2023-03-02T13:12:48.511Z,6.42
2023-03-02T13:16:56.477Z,6.41
2023-03-02T13:21:06.988Z,6.46
2023-03-02T13:25:10.091Z,6.45
2023-03-02T13:29:23.070Z,6.51
2023-03-02T13:33:34.826Z,6.64
2023-03-02T13:37:47.369Z,6.59
2023-03-02T13:42:00.247Z,6.75
2023-03-02T13:46:08.012Z,6.80
2023-03-02T13:50:28.492Z,6.83
2023-03-02T13:54:39.476Z,6.74
2023-03-02T13:58:41.252Z,6.66
2023-03-02T14:02:46.181Z,6.77
2023-03-02T14:06:49.985Z,6.82
2023-03-02T14:10:53.964Z,6.73
2023-03-02T14:14:59.136Z,6.73
2023-03-02T14:19:17.931Z,6.66
2023-03-02T14:23:21.364Z,6.61
2023-03-02T14:27:27.516Z,6.60
2023-03-02T14:31:35.650Z,6.51
2023-03-02T14:35:42.125Z,6.62
2023-03-02T14:39:47.051Z,6.61
2023-03-02T14:43:48.203Z,6.57
2023-03-02T14:47:48.857Z,6.47
2023-03-02T14:51:57.472Z,6.45
2023-03-02T14:56:01.906Z,6.41
2023-03-02T15:00:03.112Z,6.43
2023-03-02T15:04:04.211Z,6.37
2023-03-02T15:08:11.618Z,6.38
2023-03-02T15:12:15.433Z,6.26
2023-03-02T15:16:26.464Z,6.21
2023-03-02T15:20:30.441Z,6.17
2023-03-02T15:24:41.328Z,6.14
2023-03-02T15:28:46.418Z,6.08
2023-03-02T15:32:49.777Z,6.11
2023-03-02T15:36:51.849Z,6.10
2023-03-02T15:40:55.864Z,6.08
2023-03-02T15:44:56.615Z,6.11
2023-03-02T15:48:57.923Z,6.10
2023-03-02T15:52:59.014Z,6.22
2023-03-02T15:57:04.526Z,6.16
2023-03-02T16:01:10.457Z,6.14
2023-03-02T16:05:11.657Z,6.12
2023-03-02T16:09:19.403Z,6.14
2023-03-02T16:13:26.085Z,6.07
2023-03-02T16:17:28.059Z,6.04
2023-03-02T16:21:32.980Z,6.03
2023-03-02T16:25:35.280Z,6.12
2023-03-02T16:29:39.819Z,6.19
2023-03-02T16:33:57.355Z,6.21
2023-03-02T16:38:14.282Z,6.20
2023-03-02T16:42:19.329Z,6.20
2023-03-02T16:46:22.775Z,6.06
2023-03-02T16:50:23.790Z,6.01
2023-03-02T16:54:26.781Z,5.96
2023-03-02T16:58:30.592Z,6.01
2023-03-02T17:02:33.079Z,5.97
2023-03-02T17:06:33.386Z,5.89
2023-03-02T17:10:43.975Z,5.71
2023-03-02T17:14:45.105Z,5.65
2023-03-02T17:18:48.440Z,5.74
2023-03-02T17:22:49.802Z,5.77
2023-03-02T17:26:50.828Z,5.81
2023-03-02T17:30:52.455Z,5.73
2023-03-02T17:34:55.108Z,5.75
2023-03-02T17:38:58.710Z,5.81
2023-03-02T17:42:59.077Z,5.79
2023-03-02T17:47:00.681Z,5.81
2023-03-02T17:51:03.619Z,5.81
2023-03-02T17:55:04.490Z,5.94
2023-03-02T17:59:06.398Z,5.98
2023-03-02T18:03:09.727Z,6.01
2023-03-02T18:07:12.830Z,6.02
2023-03-02T18:11:13.674Z,6.01
2023-03-02T18:15:14.939Z,5.96
2023-03-02T18:19:15.360Z,6.08
2023-03-02T18:23:17.141Z,6.00
2023-03-02T18:27:17.553Z,5.78
2023-03-02T18:31:19.156Z,5.76
2023-03-02T18:35:20.196Z,5.51
2023-03-02T18:39:37.614Z,5.58
2023-03-02T18:43:41.529Z,5.56
2023-03-02T18:47:46.219Z,5.57
2023-03-02T18:52:06.260Z,5.53
2023-03-02T18:56:19.405Z,5.40
2023-03-02T19:00:28.347Z,5.48
2023-03-02T19:04:34.255Z,5.49
2023-03-02T19:08:36.408Z,5.40
2023-03-02T19:12:40.719Z,5.33
2023-03-02T19:16:44.559Z,5.32
2023-03-02T19:20:47.537Z,5.43
2023-03-02T19:24:48.385Z,5.33
2023-03-02T19:28:57.220Z,5.52
2023-03-02T19:32:58.374Z,5.59
2023-03-02T19:37:04.442Z,5.55
2023-03-02T19:41:09.482Z,5.55
2023-03-02T19:45:24.222Z,5.50
2023-03-02T19:49:42.209Z,5.51
2023-03-02T19:53:47.521Z,5.52
2023-03-02T19:57:55.825Z,5.47
2023-03-02T20:01:59.548Z,5.53
2023-03-02T20:06:01.227Z,5.49
2023-03-02T20:10:03.030Z,5.64
2023-03-02T20:14:33.323Z,5.73
2023-03-02T20:18:40.054Z,5.65
2023-03-02T20:22:40.958Z,5.51
2023-03-02T20:26:42.355Z,5.46
2023-03-02T20:30:57.018Z,5.42
2023-03-02T20:35:30.360Z,5.40
2023-03-02T20:40:06.610Z,5.34
2023-03-02T20:55:11.371Z,5.22
2023-03-02T20:59:42.168Z,5.28
2023-03-02T21:04:06.878Z,5.22
2023-03-02T21:08:16.353Z,5.19
2023-03-02T21:12:24.972Z,5.14
2023-03-02T21:16:30.825Z,4.97
2023-03-02T21:20:39.346Z,4.89
2023-03-02T21:24:41.319Z,4.89
2023-03-02T21:28:56.505Z,4.91
2023-03-02T21:32:57.865Z,4.94
2023-03-02T21:37:09.035Z,4.82
2023-03-02T21:41:13.275Z,4.89
2023-03-02T21:45:20.400Z,4.84
2023-03-02T21:49:23.569Z,4.81
2023-03-02T21:53:29.636Z,4.77
2023-03-02T21:57:31.199Z,4.81
2023-03-02T22:01:37.173Z,4.75
2023-03-02T22:05:40.284Z,4.80
2023-03-02T22:09:41.371Z,4.86
2023-03-02T22:13:45.751Z,4.83
2023-03-02T22:17:55.622Z,4.75
2023-03-02T22:22:08.136Z,4.79
2023-03-02T22:26:22.936Z,4.82
2023-03-02T22:30:38.405Z,4.75
2023-03-02T22:34:57.496Z,4.68
2023-03-02T22:39:26.229Z,4.66
2023-03-02T22:43:51.387Z,4.63
2023-03-02T22:48:25.745Z,4.58
2023-03-02T22:52:49.420Z,4.57
2023-03-02T22:57:11.152Z,4.56
2023-03-02T23:01:45.827Z,4.56
2023-03-02T23:06:19.102Z,4.59
2023-03-02T23:11:28.249Z,4.70
2023-03-02T23:15:31.247Z,4.66
2023-03-02T23:25:54.872Z,4.65
2023-03-02T23:35:14.698Z,4.58
2023-03-02T23:39:30.288Z,4.49
2023-03-02T23:43:43.425Z,4.46
2023-03-02T23:52:30.447Z,4.48
2023-03-02T23:56:42.986Z,4.45
